sensor_id;sensor_type;location;lat;lon;timestamp;P1;durP1;ratioP1;P2;durP2;ratioP2
68951;SDS011;56000;51.146;17.112;2023-12-04T00:02:07;44.20;;;20.00;;
68951;SDS011;56000;51.146;17.112;2023-12-04T00:04:40;44.10;;;19.10;;
68951;SDS011;56000;51.146;17.112;2023-12-04T00:07:13;39.60;;;17.80;;
68951;SDS011;56000;51.146;17.112;2023-12-04T00:09:45;48.40;;;19.80;;
68951;SDS011;56000;51.146;17.112;2023-12-04T00:12:18;50.10;;;19.20;;
68951;SDS011;56000;51.146;17.112;2023-12-04T00:14:51;44.80;;;20.10;;
68951;SDS011;56000;51.146;17.112;2023-12-04T00:17:24;41.40;;;16.70;;
68951;SDS011;56000;51.146;17.112;2023-12-04T00:19:57;32.90;;;14.10;;
68951;SDS011;56000;51.146;17.112;2023-12-04T00:22:30;38.50;;;16.70;;
68951;SDS011;56000;51.146;17.112;2023-12-04T00:25:02;41.30;;;18.00;;
68951;SDS011;56000;51.146;17.112;2023-12-04T00:27:37;49.50;;;21.70;;
68951;SDS011;56000;51.146;17.112;2023-12-04T00:30:11;38.20;;;18.30;;
68951;SDS011;56000;51.146;17.112;2023-12-04T00:32:43;46.60;;;18.20;;
68951;SDS011;56000;51.146;17.112;2023-12-04T00:35:16;48.90;;;21.20;;
68951;SDS011;56000;51.146;17.112;2023-12-04T00:37:49;44.60;;;19.90;;
68951;SDS011;56000;51.146;17.112;2023-12-04T00:40:22;42.50;;;17.30;;
68951;SDS011;56000;51.146;17.112;2023-12-04T00:42:56;57.70;;;23.30;;
68951;SDS011;56000;51.146;17.112;2023-12-04T00:45:28;44.90;;;17.70;;
68951;SDS011;56000;51.146;17.112;2023-12-04T00:48:01;38.90;;;17.00;;
68951;SDS011;56000;51.146;17.112;2023-12-04T00:50:35;38.40;;;16.10;;
68951;SDS011;56000;51.146;17.112;2023-12-04T00:53:08;35.50;;;14.90;;
68951;SDS011;56000;51.146;17.112;2023-12-04T00:55:41;41.00;;;15.30;;
68951;SDS011;56000;51.146;17.112;2023-12-04T00:58:14;39.10;;;15.20;;
68951;SDS011;56000;51.146;17.112;2023-12-04T01:00:46;32.30;;;15.10;;
68951;SDS011;56000;51.146;17.112;2023-12-04T01:03:21;43.30;;;15.80;;
68951;SDS011;56000;51.146;17.112;2023-12-04T01:05:56;35.50;;;14.40;;
68951;SDS011;56000;51.146;17.112;2023-12-04T01:08:29;41.10;;;14.20;;
68951;SDS011;56000;51.146;17.112;2023-12-04T01:11:02;24.40;;;10.60;;
68951;SDS011;56000;51.146;17.112;2023-12-04T01:13:35;34.70;;;13.60;;
68951;SDS011;56000;51.146;17.112;2023-12-04T01:16:09;22.50;;;9.30;;
68951;SDS011;56000;51.146;17.112;2023-12-04T01:18:42;25.90;;;11.50;;
68951;SDS011;56000;51.146;17.112;2023-12-04T01:21:15;31.70;;;12.60;;
68951;SDS011;56000;51.146;17.112;2023-12-04T01:23:48;31.20;;;13.40;;
68951;SDS011;56000;51.146;17.112;2023-12-04T01:26:21;36.80;;;12.80;;
68951;SDS011;56000;51.146;17.112;2023-12-04T01:28:54;25.80;;;11.40;;
68951;SDS011;56000;51.146;17.112;2023-12-04T01:31:27;27.70;;;12.30;;
68951;SDS011;56000;51.146;17.112;2023-12-04T01:34:00;27.90;;;12.80;;
68951;SDS011;56000;51.146;17.112;2023-12-04T01:36:33;33.20;;;14.30;;
68951;SDS011;56000;51.146;17.112;2023-12-04T01:39:07;39.30;;;16.10;;
68951;SDS011;56000;51.146;17.112;2023-12-04T01:41:39;41.20;;;16.50;;
68951;SDS011;56000;51.146;17.112;2023-12-04T01:44:12;42.30;;;16.30;;
68951;SDS011;56000;51.146;17.112;2023-12-04T01:46:45;42.10;;;16.00;;
68951;SDS011;56000;51.146;17.112;2023-12-04T01:49:18;35.40;;;14.00;;
68951;SDS011;56000;51.146;17.112;2023-12-04T01:51:51;40.70;;;15.50;;
68951;SDS011;56000;51.146;17.112;2023-12-04T01:54:24;39.00;;;12.70;;
68951;SDS011;56000;51.146;17.112;2023-12-04T01:56:57;43.30;;;16.20;;
68951;SDS011;56000;51.146;17.112;2023-12-04T01:59:32;41.20;;;13.60;;
68951;SDS011;56000;51.146;17.112;2023-12-04T02:02:05;30.90;;;12.50;;
68951;SDS011;56000;51.146;17.112;2023-12-04T02:04:38;28.70;;;9.60;;
68951;SDS011;56000;51.146;17.112;2023-12-04T02:07:11;31.80;;;12.20;;
68951;SDS011;56000;51.146;17.112;2023-12-04T02:09:44;38.00;;;14.50;;
68951;SDS011;56000;51.146;17.112;2023-12-04T02:12:17;33.80;;;14.90;;
68951;SDS011;56000;51.146;17.112;2023-12-04T02:14:51;37.90;;;17.30;;
68951;SDS011;56000;51.146;17.112;2023-12-04T02:17:24;41.70;;;17.00;;
68951;SDS011;56000;51.146;17.112;2023-12-04T02:19:59;38.60;;;15.20;;
68951;SDS011;56000;51.146;17.112;2023-12-04T02:22:35;43.60;;;18.20;;
68951;SDS011;56000;51.146;17.112;2023-12-04T02:25:09;47.00;;;18.80;;
68951;SDS011;56000;51.146;17.112;2023-12-04T02:28:04;44.70;;;17.60;;
68951;SDS011;56000;51.146;17.112;2023-12-04T02:30:40;45.10;;;18.20;;
68951;SDS011;56000;51.146;17.112;2023-12-04T02:33:14;43.30;;;16.30;;
68951;SDS011;56000;51.146;17.112;2023-12-04T02:35:51;39.80;;;15.40;;
68951;SDS011;56000;51.146;17.112;2023-12-04T02:38:26;49.20;;;18.10;;
68951;SDS011;56000;51.146;17.112;2023-12-04T02:41:00;43.40;;;15.50;;
68951;SDS011;56000;51.146;17.112;2023-12-04T02:43:33;31.30;;;11.90;;
68951;SDS011;56000;51.146;17.112;2023-12-04T02:46:06;39.00;;;15.10;;
68951;SDS011;56000;51.146;17.112;2023-12-04T02:48:39;37.30;;;14.40;;
68951;SDS011;56000;51.146;17.112;2023-12-04T02:51:13;25.90;;;10.30;;
68951;SDS011;56000;51.146;17.112;2023-12-04T02:53:46;30.30;;;12.50;;
68951;SDS011;56000;51.146;17.112;2023-12-04T02:56:19;40.10;;;16.60;;
68951;SDS011;56000;51.146;17.112;2023-12-04T02:58:52;36.50;;;16.30;;
68951;SDS011;56000;51.146;17.112;2023-12-04T03:01:25;38.50;;;15.40;;
68951;SDS011;56000;51.146;17.112;2023-12-04T03:03:57;35.40;;;16.00;;
68951;SDS011;56000;51.146;17.112;2023-12-04T03:06:30;48.80;;;19.40;;
68951;SDS011;56000;51.146;17.112;2023-12-04T03:09:04;33.40;;;15.50;;
68951;SDS011;56000;51.146;17.112;2023-12-04T03:11:40;39.10;;;15.80;;
68951;SDS011;56000;51.146;17.112;2023-12-04T03:14:13;39.10;;;17.20;;
68951;SDS011;56000;51.146;17.112;2023-12-04T03:16:46;40.80;;;16.30;;
68951;SDS011;56000;51.146;17.112;2023-12-04T03:19:19;33.00;;;13.40;;
68951;SDS011;56000;51.146;17.112;2023-12-04T03:21:52;40.10;;;14.40;;
68951;SDS011;56000;51.146;17.112;2023-12-04T03:24:25;39.00;;;16.00;;
68951;SDS011;56000;51.146;17.112;2023-12-04T03:26:57;31.60;;;14.70;;
68951;SDS011;56000;51.146;17.112;2023-12-04T03:29:30;37.80;;;16.60;;
68951;SDS011;56000;51.146;17.112;2023-12-04T03:32:04;44.00;;;16.00;;
68951;SDS011;56000;51.146;17.112;2023-12-04T03:34:37;40.90;;;14.10;;
68951;SDS011;56000;51.146;17.112;2023-12-04T03:37:10;39.60;;;16.00;;
68951;SDS011;56000;51.146;17.112;2023-12-04T03:39:43;33.70;;;13.20;;
68951;SDS011;56000;51.146;17.112;2023-12-04T03:42:16;32.90;;;14.50;;
68951;SDS011;56000;51.146;17.112;2023-12-04T03:44:49;32.00;;;14.00;;
68951;SDS011;56000;51.146;17.112;2023-12-04T03:47:22;31.50;;;11.80;;
68951;SDS011;56000;51.146;17.112;2023-12-04T03:49:56;33.90;;;12.70;;
68951;SDS011;56000;51.146;17.112;2023-12-04T03:52:29;23.30;;;12.00;;
68951;SDS011;56000;51.146;17.112;2023-12-04T03:55:02;24.80;;;11.50;;
68951;SDS011;56000;51.146;17.112;2023-12-04T03:57:36;26.40;;;13.10;;
68951;SDS011;56000;51.146;17.112;2023-12-04T04:00:11;31.10;;;12.20;;
68951;SDS011;56000;51.146;17.112;2023-12-04T04:02:45;23.10;;;12.30;;
68951;SDS011;56000;51.146;17.112;2023-12-04T04:05:18;25.10;;;11.20;;
68951;SDS011;56000;51.146;17.112;2023-12-04T04:07:51;29.60;;;14.30;;
68951;SDS011;56000;51.146;17.112;2023-12-04T04:10:24;30.20;;;13.40;;
68951;SDS011;56000;51.146;17.112;2023-12-04T04:12:57;32.50;;;13.00;;
68951;SDS011;56000;51.146;17.112;2023-12-04T04:15:30;25.00;;;13.20;;
68951;SDS011;56000;51.146;17.112;2023-12-04T04:18:03;32.80;;;15.40;;
68951;SDS011;56000;51.146;17.112;2023-12-04T04:20:36;35.60;;;13.60;;
68951;SDS011;56000;51.146;17.112;2023-12-04T04:23:09;36.90;;;14.90;;
68951;SDS011;56000;51.146;17.112;2023-12-04T04:25:42;37.30;;;15.00;;
68951;SDS011;56000;51.146;17.112;2023-12-04T04:28:15;36.50;;;14.10;;
68951;SDS011;56000;51.146;17.112;2023-12-04T04:30:48;35.00;;;15.40;;
68951;SDS011;56000;51.146;17.112;2023-12-04T04:33:20;32.90;;;15.90;;
68951;SDS011;56000;51.146;17.112;2023-12-04T04:35:54;26.20;;;13.40;;
68951;SDS011;56000;51.146;17.112;2023-12-04T04:38:26;36.70;;;15.70;;
68951;SDS011;56000;51.146;17.112;2023-12-04T04:40:59;37.00;;;16.40;;
68951;SDS011;56000;51.146;17.112;2023-12-04T04:43:32;31.80;;;14.80;;
68951;SDS011;56000;51.146;17.112;2023-12-04T04:46:06;35.60;;;14.80;;
68951;SDS011;56000;51.146;17.112;2023-12-04T04:48:39;44.70;;;16.80;;
68951;SDS011;56000;51.146;17.112;2023-12-04T04:51:12;35.90;;;16.20;;
68951;SDS011;56000;51.146;17.112;2023-12-04T04:53:45;41.20;;;16.00;;
68951;SDS011;56000;51.146;17.112;2023-12-04T04:56:18;36.80;;;16.20;;
68951;SDS011;56000;51.146;17.112;2023-12-04T04:58:51;33.10;;;13.00;;
68951;SDS011;56000;51.146;17.112;2023-12-04T05:01:24;39.30;;;15.50;;
68951;SDS011;56000;51.146;17.112;2023-12-04T05:03:57;42.30;;;17.10;;
68951;SDS011;56000;51.146;17.112;2023-12-04T05:06:30;35.60;;;13.30;;
68951;SDS011;56000;51.146;17.112;2023-12-04T05:09:03;38.40;;;15.40;;
68951;SDS011;56000;51.146;17.112;2023-12-04T05:11:36;37.20;;;16.10;;
68951;SDS011;56000;51.146;17.112;2023-12-04T05:14:09;43.70;;;16.80;;
68951;SDS011;56000;51.146;17.112;2023-12-04T05:16:41;34.90;;;16.00;;
68951;SDS011;56000;51.146;17.112;2023-12-04T05:19:14;38.80;;;14.20;;
68951;SDS011;56000;51.146;17.112;2023-12-04T05:21:47;41.70;;;15.00;;
68951;SDS011;56000;51.146;17.112;2023-12-04T05:24:20;29.90;;;14.50;;
68951;SDS011;56000;51.146;17.112;2023-12-04T05:26:54;30.30;;;14.50;;
68951;SDS011;56000;51.146;17.112;2023-12-04T05:29:26;33.40;;;14.00;;
68951;SDS011;56000;51.146;17.112;2023-12-04T05:31:59;36.50;;;14.70;;
68951;SDS011;56000;51.146;17.112;2023-12-04T05:34:32;31.20;;;14.70;;
68951;SDS011;56000;51.146;17.112;2023-12-04T05:37:05;35.70;;;14.50;;
68951;SDS011;56000;51.146;17.112;2023-12-04T05:39:38;26.40;;;11.80;;
68951;SDS011;56000;51.146;17.112;2023-12-04T05:42:11;31.30;;;12.70;;
68951;SDS011;56000;51.146;17.112;2023-12-04T05:44:44;41.60;;;16.20;;
68951;SDS011;56000;51.146;17.112;2023-12-04T05:47:17;32.20;;;13.00;;
68951;SDS011;56000;51.146;17.112;2023-12-04T05:49:50;34.80;;;14.80;;
68951;SDS011;56000;51.146;17.112;2023-12-04T05:52:23;29.70;;;14.30;;
68951;SDS011;56000;51.146;17.112;2023-12-04T05:54:56;38.10;;;15.70;;
68951;SDS011;56000;51.146;17.112;2023-12-04T05:57:29;38.70;;;15.20;;
68951;SDS011;56000;51.146;17.112;2023-12-04T06:00:02;27.20;;;11.50;;
68951;SDS011;56000;51.146;17.112;2023-12-04T06:02:42;36.70;;;13.80;;
68951;SDS011;56000;51.146;17.112;2023-12-04T06:05:16;29.90;;;14.60;;
68951;SDS011;56000;51.146;17.112;2023-12-04T06:07:49;33.50;;;14.60;;
68951;SDS011;56000;51.146;17.112;2023-12-04T06:10:21;34.50;;;15.90;;
68951;SDS011;56000;51.146;17.112;2023-12-04T06:12:54;35.30;;;15.80;;
68951;SDS011;56000;51.146;17.112;2023-12-04T06:15:27;34.90;;;13.40;;
68951;SDS011;56000;51.146;17.112;2023-12-04T06:18:00;32.80;;;14.40;;
68951;SDS011;56000;51.146;17.112;2023-12-04T06:20:34;42.10;;;15.10;;
68951;SDS011;56000;51.146;17.112;2023-12-04T06:23:08;36.60;;;14.40;;
68951;SDS011;56000;51.146;17.112;2023-12-04T06:25:43;32.60;;;12.90;;
68951;SDS011;56000;51.146;17.112;2023-12-04T06:28:17;29.10;;;13.10;;
68951;SDS011;56000;51.146;17.112;2023-12-04T06:30:51;30.80;;;12.00;;
68951;SDS011;56000;51.146;17.112;2023-12-04T06:33:25;39.40;;;14.70;;
68951;SDS011;56000;51.146;17.112;2023-12-04T06:35:59;31.20;;;12.10;;
68951;SDS011;56000;51.146;17.112;2023-12-04T06:38:33;27.30;;;12.10;;
68951;SDS011;56000;51.146;17.112;2023-12-04T06:41:14;30.10;;;13.40;;
68951;SDS011;56000;51.146;17.112;2023-12-04T06:43:49;26.00;;;12.60;;
68951;SDS011;56000;51.146;17.112;2023-12-04T06:46:23;29.80;;;14.50;;
68951;SDS011;56000;51.146;17.112;2023-12-04T06:48:59;41.40;;;15.40;;
68951;SDS011;56000;51.146;17.112;2023-12-04T06:51:33;34.30;;;14.40;;
68951;SDS011;56000;51.146;17.112;2023-12-04T06:54:05;35.40;;;14.00;;
68951;SDS011;56000;51.146;17.112;2023-12-04T06:56:39;31.60;;;12.80;;
68951;SDS011;56000;51.146;17.112;2023-12-04T06:59:12;39.80;;;16.80;;
68951;SDS011;56000;51.146;17.112;2023-12-04T07:01:45;42.60;;;17.20;;
68951;SDS011;56000;51.146;17.112;2023-12-04T07:04:18;26.80;;;13.60;;
68951;SDS011;56000;51.146;17.112;2023-12-04T07:06:52;49.00;;;16.90;;
68951;SDS011;56000;51.146;17.112;2023-12-04T07:09:25;37.50;;;16.50;;
68951;SDS011;56000;51.146;17.112;2023-12-04T07:11:58;35.80;;;15.70;;
68951;SDS011;56000;51.146;17.112;2023-12-04T07:14:32;35.00;;;14.90;;
68951;SDS011;56000;51.146;17.112;2023-12-04T07:17:05;44.90;;;17.70;;
68951;SDS011;56000;51.146;17.112;2023-12-04T07:19:38;46.00;;;17.80;;
68951;SDS011;56000;51.146;17.112;2023-12-04T07:22:13;29.90;;;14.80;;
68951;SDS011;56000;51.146;17.112;2023-12-04T07:24:46;44.70;;;18.10;;
68951;SDS011;56000;51.146;17.112;2023-12-04T07:27:19;38.80;;;16.90;;
68951;SDS011;56000;51.146;17.112;2023-12-04T07:29:51;42.20;;;17.50;;
68951;SDS011;56000;51.146;17.112;2023-12-04T07:32:24;40.80;;;18.40;;
68951;SDS011;56000;51.146;17.112;2023-12-04T07:34:57;52.20;;;21.60;;
68951;SDS011;56000;51.146;17.112;2023-12-04T07:37:30;50.30;;;18.70;;
68951;SDS011;56000;51.146;17.112;2023-12-04T07:40:03;51.00;;;20.40;;
68951;SDS011;56000;51.146;17.112;2023-12-04T07:42:38;50.50;;;21.20;;
68951;SDS011;56000;51.146;17.112;2023-12-04T07:45:14;55.20;;;23.50;;
68951;SDS011;56000;51.146;17.112;2023-12-04T07:47:47;53.00;;;24.10;;
68951;SDS011;56000;51.146;17.112;2023-12-04T07:50:20;60.50;;;24.30;;
68951;SDS011;56000;51.146;17.112;2023-12-04T07:52:54;65.50;;;28.90;;
68951;SDS011;56000;51.146;17.112;2023-12-04T07:55:26;47.90;;;21.10;;
68951;SDS011;56000;51.146;17.112;2023-12-04T07:57:59;63.60;;;28.00;;
68951;SDS011;56000;51.146;17.112;2023-12-04T08:00:32;60.00;;;28.40;;
68951;SDS011;56000;51.146;17.112;2023-12-04T08:03:05;61.70;;;27.60;;
68951;SDS011;56000;51.146;17.112;2023-12-04T08:05:38;67.60;;;30.60;;
68951;SDS011;56000;51.146;17.112;2023-12-04T08:08:11;54.80;;;28.30;;
68951;SDS011;56000;51.146;17.112;2023-12-04T08:10:43;55.40;;;25.00;;
68951;SDS011;56000;51.146;17.112;2023-12-04T08:13:16;59.70;;;29.90;;
68951;SDS011;56000;51.146;17.112;2023-12-04T08:15:49;62.20;;;28.90;;
68951;SDS011;56000;51.146;17.112;2023-12-04T08:18:22;67.40;;;29.00;;
68951;SDS011;56000;51.146;17.112;2023-12-04T08:20:55;56.80;;;27.30;;
68951;SDS011;56000;51.146;17.112;2023-12-04T08:23:31;55.80;;;27.10;;
68951;SDS011;56000;51.146;17.112;2023-12-04T08:26:04;53.50;;;26.40;;
68951;SDS011;56000;51.146;17.112;2023-12-04T08:28:37;50.20;;;26.80;;
68951;SDS011;56000;51.146;17.112;2023-12-04T08:31:11;54.00;;;25.60;;
68951;SDS011;56000;51.146;17.112;2023-12-04T08:33:45;57.30;;;28.10;;
68951;SDS011;56000;51.146;17.112;2023-12-04T08:36:17;51.20;;;25.70;;
68951;SDS011;56000;51.146;17.112;2023-12-04T08:38:50;47.80;;;25.10;;
68951;SDS011;56000;51.146;17.112;2023-12-04T08:41:24;50.70;;;26.00;;
68951;SDS011;56000;51.146;17.112;2023-12-04T08:43:58;55.10;;;27.20;;
68951;SDS011;56000;51.146;17.112;2023-12-04T08:46:30;49.20;;;26.70;;
68951;SDS011;56000;51.146;17.112;2023-12-04T08:49:03;52.30;;;28.00;;
68951;SDS011;56000;51.146;17.112;2023-12-04T08:51:36;50.50;;;27.30;;
68951;SDS011;56000;51.146;17.112;2023-12-04T08:54:09;51.90;;;28.90;;
68951;SDS011;56000;51.146;17.112;2023-12-04T08:56:45;51.70;;;28.20;;
68951;SDS011;56000;51.146;17.112;2023-12-04T08:59:18;46.70;;;26.00;;
68951;SDS011;56000;51.146;17.112;2023-12-04T09:01:50;50.80;;;28.00;;
68951;SDS011;56000;51.146;17.112;2023-12-04T09:04:23;47.50;;;26.80;;
68951;SDS011;56000;51.146;17.112;2023-12-04T09:06:57;56.70;;;31.10;;
68951;SDS011;56000;51.146;17.112;2023-12-04T09:09:50;48.10;;;25.40;;
68951;SDS011;56000;51.146;17.112;2023-12-04T09:12:23;50.20;;;26.80;;
68951;SDS011;56000;51.146;17.112;2023-12-04T09:14:56;46.00;;;25.60;;
68951;SDS011;56000;51.146;17.112;2023-12-04T09:17:29;58.50;;;29.30;;
68951;SDS011;56000;51.146;17.112;2023-12-04T09:20:09;44.90;;;24.80;;
68951;SDS011;56000;51.146;17.112;2023-12-04T09:22:42;49.20;;;26.20;;
68951;SDS011;56000;51.146;17.112;2023-12-04T09:25:21;44.10;;;23.90;;
68951;SDS011;56000;51.146;17.112;2023-12-04T09:27:55;42.50;;;24.10;;
68951;SDS011;56000;51.146;17.112;2023-12-04T09:30:28;40.80;;;23.30;;
68951;SDS011;56000;51.146;17.112;2023-12-04T09:33:01;40.60;;;22.90;;
68951;SDS011;56000;51.146;17.112;2023-12-04T09:35:34;41.80;;;23.70;;
68951;SDS011;56000;51.146;17.112;2023-12-04T09:38:07;43.90;;;25.00;;
68951;SDS011;56000;51.146;17.112;2023-12-04T09:40:40;47.30;;;26.20;;
68951;SDS011;56000;51.146;17.112;2023-12-04T09:43:13;43.10;;;24.20;;
68951;SDS011;56000;51.146;17.112;2023-12-04T09:45:47;41.00;;;24.30;;
68951;SDS011;56000;51.146;17.112;2023-12-04T09:48:20;41.30;;;24.50;;
68951;SDS011;56000;51.146;17.112;2023-12-04T09:50:55;44.30;;;25.30;;
68951;SDS011;56000;51.146;17.112;2023-12-04T09:53:30;43.10;;;25.00;;
68951;SDS011;56000;51.146;17.112;2023-12-04T09:56:06;43.10;;;23.30;;
68951;SDS011;56000;51.146;17.112;2023-12-04T09:58:41;39.60;;;22.20;;
68951;SDS011;56000;51.146;17.112;2023-12-04T10:01:16;39.00;;;22.50;;
68951;SDS011;56000;51.146;17.112;2023-12-04T10:03:49;37.50;;;21.60;;
68951;SDS011;56000;51.146;17.112;2023-12-04T10:06:23;38.60;;;22.50;;
68951;SDS011;56000;51.146;17.112;2023-12-04T10:08:58;33.30;;;19.70;;
68951;SDS011;56000;51.146;17.112;2023-12-04T10:11:30;41.40;;;21.20;;
68951;SDS011;56000;51.146;17.112;2023-12-04T10:14:04;32.50;;;20.20;;
68951;SDS011;56000;51.146;17.112;2023-12-04T10:16:44;33.70;;;20.00;;
68951;SDS011;56000;51.146;17.112;2023-12-04T10:19:21;36.20;;;21.00;;
68951;SDS011;56000;51.146;17.112;2023-12-04T10:21:57;32.50;;;20.30;;
68951;SDS011;56000;51.146;17.112;2023-12-04T10:24:32;30.30;;;18.90;;
68951;SDS011;56000;51.146;17.112;2023-12-04T10:27:08;31.60;;;18.50;;
68951;SDS011;56000;51.146;17.112;2023-12-04T10:29:46;29.20;;;17.50;;
68951;SDS011;56000;51.146;17.112;2023-12-04T10:32:22;35.00;;;17.40;;
68951;SDS011;56000;51.146;17.112;2023-12-04T10:34:57;31.40;;;16.50;;
68951;SDS011;56000;51.146;17.112;2023-12-04T10:37:31;32.20;;;18.50;;
68951;SDS011;56000;51.146;17.112;2023-12-04T10:40:08;34.50;;;17.80;;
68951;SDS011;56000;51.146;17.112;2023-12-04T10:42:42;33.50;;;18.10;;
68951;SDS011;56000;51.146;17.112;2023-12-04T10:45:15;35.30;;;19.00;;
68951;SDS011;56000;51.146;17.112;2023-12-04T10:47:51;28.10;;;15.30;;
68951;SDS011;56000;51.146;17.112;2023-12-04T10:50:24;35.40;;;17.40;;
68951;SDS011;56000;51.146;17.112;2023-12-04T10:52:59;38.40;;;19.40;;
68951;SDS011;56000;51.146;17.112;2023-12-04T10:55:34;31.20;;;16.30;;
68951;SDS011;56000;51.146;17.112;2023-12-04T10:58:09;34.20;;;16.70;;
68951;SDS011;56000;51.146;17.112;2023-12-04T11:00:44;32.90;;;17.00;;
68951;SDS011;56000;51.146;17.112;2023-12-04T11:03:20;29.90;;;16.00;;
68951;SDS011;56000;51.146;17.112;2023-12-04T11:05:59;37.00;;;17.20;;
68951;SDS011;56000;51.146;17.112;2023-12-04T11:08:35;33.80;;;16.60;;
68951;SDS011;56000;51.146;17.112;2023-12-04T11:11:10;37.40;;;18.30;;
68951;SDS011;56000;51.146;17.112;2023-12-04T11:13:48;40.60;;;18.90;;
68951;SDS011;56000;51.146;17.112;2023-12-04T11:16:31;33.50;;;16.10;;
68951;SDS011;56000;51.146;17.112;2023-12-04T11:19:13;35.60;;;18.20;;
68951;SDS011;56000;51.146;17.112;2023-12-04T11:21:51;37.00;;;19.00;;
68951;SDS011;56000;51.146;17.112;2023-12-04T11:24:27;35.30;;;17.10;;
68951;SDS011;56000;51.146;17.112;2023-12-04T11:27:00;32.20;;;17.80;;
68951;SDS011;56000;51.146;17.112;2023-12-04T11:29:34;35.90;;;16.80;;
68951;SDS011;56000;51.146;17.112;2023-12-04T11:32:08;37.20;;;19.90;;
68951;SDS011;56000;51.146;17.112;2023-12-04T11:34:58;36.00;;;18.30;;
68951;SDS011;56000;51.146;17.112;2023-12-04T11:37:32;40.00;;;18.50;;
68951;SDS011;56000;51.146;17.112;2023-12-04T11:40:09;30.20;;;15.80;;
68951;SDS011;56000;51.146;17.112;2023-12-04T11:42:45;32.50;;;16.80;;
68951;SDS011;56000;51.146;17.112;2023-12-04T11:45:21;39.80;;;18.40;;
68951;SDS011;56000;51.146;17.112;2023-12-04T11:47:56;37.90;;;18.00;;
68951;SDS011;56000;51.146;17.112;2023-12-04T11:50:29;38.10;;;19.80;;
68951;SDS011;56000;51.146;17.112;2023-12-04T11:53:04;39.50;;;18.30;;
68951;SDS011;56000;51.146;17.112;2023-12-04T11:55:36;37.50;;;19.20;;
68951;SDS011;56000;51.146;17.112;2023-12-04T11:58:12;37.40;;;18.40;;
68951;SDS011;56000;51.146;17.112;2023-12-04T12:00:46;36.30;;;17.30;;
68951;SDS011;56000;51.146;17.112;2023-12-04T12:03:22;33.60;;;17.50;;
68951;SDS011;56000;51.146;17.112;2023-12-04T12:05:56;33.60;;;17.60;;
68951;SDS011;56000;51.146;17.112;2023-12-04T12:08:31;39.60;;;19.50;;
68951;SDS011;56000;51.146;17.112;2023-12-04T12:11:05;38.40;;;18.80;;
68951;SDS011;56000;51.146;17.112;2023-12-04T12:13:42;36.40;;;18.20;;
68951;SDS011;56000;51.146;17.112;2023-12-04T12:16:15;40.20;;;18.00;;
68951;SDS011;56000;51.146;17.112;2023-12-04T12:18:51;43.20;;;20.20;;
68951;SDS011;56000;51.146;17.112;2023-12-04T12:21:25;40.90;;;20.90;;
68951;SDS011;56000;51.146;17.112;2023-12-04T12:23:58;41.20;;;20.50;;
68951;SDS011;56000;51.146;17.112;2023-12-04T12:26:33;40.50;;;21.20;;
68951;SDS011;56000;51.146;17.112;2023-12-04T12:29:06;45.40;;;22.00;;
68951;SDS011;56000;51.146;17.112;2023-12-04T12:31:41;42.90;;;22.80;;
68951;SDS011;56000;51.146;17.112;2023-12-04T12:34:15;44.20;;;20.20;;
68951;SDS011;56000;51.146;17.112;2023-12-04T12:36:49;38.70;;;19.00;;
68951;SDS011;56000;51.146;17.112;2023-12-04T12:39:22;40.90;;;20.30;;
68951;SDS011;56000;51.146;17.112;2023-12-04T12:41:56;45.40;;;21.30;;
68951;SDS011;56000;51.146;17.112;2023-12-04T12:44:29;38.80;;;19.00;;
68951;SDS011;56000;51.146;17.112;2023-12-04T12:47:10;45.70;;;19.20;;
68951;SDS011;56000;51.146;17.112;2023-12-04T12:49:45;41.60;;;19.00;;
68951;SDS011;56000;51.146;17.112;2023-12-04T12:52:20;50.70;;;21.80;;
68951;SDS011;56000;51.146;17.112;2023-12-04T12:54:53;48.90;;;23.60;;
68951;SDS011;56000;51.146;17.112;2023-12-04T12:57:26;38.10;;;19.10;;
68951;SDS011;56000;51.146;17.112;2023-12-04T12:59:59;47.30;;;21.00;;
68951;SDS011;56000;51.146;17.112;2023-12-04T13:02:38;41.20;;;20.40;;
68951;SDS011;56000;51.146;17.112;2023-12-04T13:05:11;44.10;;;20.80;;
68951;SDS011;56000;51.146;17.112;2023-12-04T13:07:47;41.40;;;19.90;;
68951;SDS011;56000;51.146;17.112;2023-12-04T13:10:21;44.00;;;19.20;;
68951;SDS011;56000;51.146;17.112;2023-12-04T13:12:54;49.00;;;21.90;;
68951;SDS011;56000;51.146;17.112;2023-12-04T13:15:29;45.50;;;20.20;;
68951;SDS011;56000;51.146;17.112;2023-12-04T13:18:02;36.50;;;18.30;;
68951;SDS011;56000;51.146;17.112;2023-12-04T13:20:35;51.30;;;22.60;;
68951;SDS011;56000;51.146;17.112;2023-12-04T13:23:08;56.10;;;27.90;;
68951;SDS011;56000;51.146;17.112;2023-12-04T13:25:41;49.00;;;21.30;;
68951;SDS011;56000;51.146;17.112;2023-12-04T13:28:14;47.60;;;22.40;;
68951;SDS011;56000;51.146;17.112;2023-12-04T13:31:00;46.40;;;21.60;;
68951;SDS011;56000;51.146;17.112;2023-12-04T13:33:33;42.80;;;20.10;;
68951;SDS011;56000;51.146;17.112;2023-12-04T13:36:07;39.30;;;19.30;;
68951;SDS011;56000;51.146;17.112;2023-12-04T13:38:41;42.20;;;19.00;;
68951;SDS011;56000;51.146;17.112;2023-12-04T13:41:14;39.50;;;18.00;;
68951;SDS011;56000;51.146;17.112;2023-12-04T13:44:10;43.40;;;19.20;;
68951;SDS011;56000;51.146;17.112;2023-12-04T13:46:45;42.40;;;19.90;;
68951;SDS011;56000;51.146;17.112;2023-12-04T13:49:19;45.70;;;19.80;;
68951;SDS011;56000;51.146;17.112;2023-12-04T13:51:52;46.40;;;21.30;;
68951;SDS011;56000;51.146;17.112;2023-12-04T13:54:25;43.80;;;21.30;;
68951;SDS011;56000;51.146;17.112;2023-12-04T13:57:13;38.50;;;16.00;;
68951;SDS011;56000;51.146;17.112;2023-12-04T13:59:50;43.30;;;19.50;;
68951;SDS011;56000;51.146;17.112;2023-12-04T14:02:23;39.20;;;19.60;;
68951;SDS011;56000;51.146;17.112;2023-12-04T14:04:57;42.30;;;19.20;;
68951;SDS011;56000;51.146;17.112;2023-12-04T14:07:30;44.70;;;19.70;;
68951;SDS011;56000;51.146;17.112;2023-12-04T14:10:05;37.60;;;17.80;;
68951;SDS011;56000;51.146;17.112;2023-12-04T14:12:39;34.10;;;15.90;;
68951;SDS011;56000;51.146;17.112;2023-12-04T14:15:12;43.50;;;18.60;;
68951;SDS011;56000;51.146;17.112;2023-12-04T14:17:45;43.30;;;19.30;;
68951;SDS011;56000;51.146;17.112;2023-12-04T14:20:19;45.30;;;21.00;;
68951;SDS011;56000;51.146;17.112;2023-12-04T14:22:52;48.20;;;22.60;;
68951;SDS011;56000;51.146;17.112;2023-12-04T14:25:25;55.40;;;23.80;;
68951;SDS011;56000;51.146;17.112;2023-12-04T14:27:58;61.70;;;25.00;;
68951;SDS011;56000;51.146;17.112;2023-12-04T14:30:34;50.00;;;22.10;;
68951;SDS011;56000;51.146;17.112;2023-12-04T14:33:07;53.20;;;21.90;;
68951;SDS011;56000;51.146;17.112;2023-12-04T14:35:41;45.50;;;19.90;;
68951;SDS011;56000;51.146;17.112;2023-12-04T14:38:15;37.70;;;16.00;;
68951;SDS011;56000;51.146;17.112;2023-12-04T14:40:50;45.30;;;19.00;;
68951;SDS011;56000;51.146;17.112;2023-12-04T14:43:23;45.10;;;19.40;;
68951;SDS011;56000;51.146;17.112;2023-12-04T14:45:56;48.60;;;19.50;;
68951;SDS011;56000;51.146;17.112;2023-12-04T14:48:30;54.50;;;22.50;;